Time;durP1;ratioP1;P1;durP2;ratioP2;P2;SDS_P1;SDS_P2;PMS_P1;PMS_P2;Temp;Humidity;BMP_temperature;BMP_pressure;BME280_temperature;BME280_humidity;BME280_pressure;Samples;Min_cycle;Max_cycle;Signal;HPM_P1;HPM_P2
2024/01/13 00:00:00;;;;;;;;;;;;;;;4.74;61.25;99105.84;68000;1275;1016394;-61
2024/01/13 00:03:03;;;;;;;;;;;;;;;4.49;62.59;99107.69;67954;1275;1016358;-61
2024/01/13 00:06:06;;;;;;;30.90;9.10;;;;;;;4.57;62.31;99091.17;67939;1275;1016723;-61
2024/01/13 00:09:08;;;;;;;24.50;7.10;;;;;;;4.61;62.05;99090.88;67970;1275;1016388;-61
2024/01/13 00:12:11;;;;;;;;;;;;;;;4.59;62.44;99099.08;67959;1275;1016231;-61
2024/01/13 00:15:14;;;;;;;28.30;7.50;;;;;;;4.50;62.95;99103.15;67977;1275;1016387;-60
2024/01/13 00:18:18;;;;;;;24.70;8.90;;;;;;;4.48;63.17;99098.56;67982;1275;1016460;-61
2024/01/13 00:21:21;;;;;;;22.10;7.00;;;;;;;4.45;63.30;99101.42;67932;1275;1016749;-62
2024/01/13 00:24:24;;;;;;;23.10;7.30;;;;;;;4.53;63.06;99103.06;67980;1275;1016103;-61
2024/01/13 00:27:27;;;;;;;22.90;7.30;;;;;;;4.37;63.78;99111.16;67955;1275;1016475;-61
2024/01/13 00:30:29;;;;;;;24.80;7.80;;;;;;;4.39;63.89;99110.45;67952;1275;1016283;-61
2024/01/13 00:33:32;;;;;;;;;;;;;;;4.54;63.21;99108.59;68015;1275;1016139;-61
2024/01/13 00:36:35;;;;;;;24.50;7.70;;;;;;;4.56;63.25;99104.19;67987;1275;1016475;-61
2024/01/13 00:39:37;;;;;;;;;;;;;;;4.52;63.60;99113.33;67905;1275;1016231;-62
2024/01/13 00:42:40;;;;;;;29.00;8.70;;;;;;;4.48;64.02;99103.94;68008;1275;1016186;-62
2024/01/13 00:45:42;;;;;;;27.50;8.60;;;;;;;4.52;64.10;99098.77;68009;1275;1016362;-61
2024/01/13 00:48:45;;;;;;;;;;;;;;;4.58;63.88;99091.30;68005;1275;1016900;-61
2024/01/13 00:51:48;;;;;;;24.10;7.10;;;;;;;4.48;64.44;99092.33;67929;1275;1016823;-61
2024/01/13 00:54:51;;;;;;;27.10;8.00;;;;;;;4.47;64.84;99079.16;68018;1275;1016322;-61
2024/01/13 00:57:53;;;;;;;;;;;;;;;4.62;64.07;99075.42;67953;1275;1016451;-59
2024/01/13 01:00:59;;;;;;;26.90;8.60;;;;;;;4.56;64.45;99072.33;67911;1275;1016937;-61
2024/01/13 01:04:02;;;;;;;26.90;7.90;;;;;;;4.61;64.25;99083.42;67954;1275;1016426;-62
2024/01/13 01:07:05;;;;;;;27.40;8.10;;;;;;;4.46;65.27;99091.33;67977;1275;1015987;-61
2024/01/13 01:10:07;;;;;;;28.20;7.20;;;;;;;4.59;64.69;99072.05;67967;1275;1016132;-61
2024/01/13 01:13:10;;;;;;;25.40;8.40;;;;;;;4.51;64.86;99081.33;67977;1275;1016246;-61
2024/01/13 01:16:13;;;;;;;;;;;;;;;4.64;64.30;99080.71;67972;1275;1016362;-61
2024/01/13 01:19:16;;;;;;;;;;;;;;;4.65;64.22;99082.42;67961;1275;1016449;-61
2024/01/13 01:22:18;;;;;;;28.00;7.80;;;;;;;4.67;64.23;99080.63;67955;1275;1016448;-61
2024/01/13 01:25:21;;;;;;;;;;;;;;;4.72;63.88;99070.94;67990;1275;1016115;-61
2024/01/13 01:28:24;;;;;;;;;;;;;;;4.73;63.83;99067.94;67963;1275;1016448;-60
2024/01/13 01:31:26;;;;;;;21.40;6.70;;;;;;;4.85;63.08;99063.23;67964;1275;1016339;-62
2024/01/13 01:34:29;;;;;;;;;;;;;;;4.85;63.22;99058.55;67992;1275;1018189;-61
2024/01/13 01:37:32;;;;;;;23.40;6.80;;;;;;;4.90;62.95;99064.09;67966;1275;1016474;-61
2024/01/13 01:40:35;;;;;;;;;;;;;;;4.94;62.78;99049.05;67958;1275;1016284;-61
2024/01/13 01:43:38;;;;;;;22.20;6.40;;;;;;;5.01;62.56;99046.21;67994;1275;1015989;-61
2024/01/13 01:46:40;;;;;;;20.50;6.50;;;;;;;5.02;62.36;99044.44;67937;1275;1016418;-62
2024/01/13 01:49:43;;;;;;;;;;;;;;;4.88;63.19;99037.32;67969;1275;1016754;-62
2024/01/13 01:52:46;;;;;;;23.90;7.40;;;;;;;4.80;63.97;99040.70;68020;1275;1015983;-62
2024/01/13 01:55:48;;;;;;;;;;;;;;;4.95;63.78;99027.20;67925;1275;1016297;-62
2024/01/13 01:58:51;;;;;;;21.80;6.80;;;;;;;4.96;63.73;99033.05;67957;1275;1016350;-61
2024/01/13 02:01:54;;;;;;;22.10;7.10;;;;;;;4.95;64.02;99039.50;67941;1275;1016176;-61
2024/01/13 02:04:58;;;;;;;;;;;;;;;5.06;63.82;99041.02;67898;1275;1016270;-61
2024/01/13 02:08:01;;;;;;;22.30;6.20;;;;;;;5.07;63.47;99038.89;67940;1275;1016434;-61
2024/01/13 02:11:04;;;;;;;;;;;;;;;4.96;64.12;99034.60;67994;1275;1016479;-60
2024/01/13 02:14:06;;;;;;;24.80;6.90;;;;;;;5.01;63.95;99031.31;67987;1275;1018624;-61
2024/01/13 02:17:09;;;;;;;;;;;;;;;5.09;63.55;99026.55;67930;1275;1016327;-61
2024/01/13 02:20:12;;;;;;;23.70;7.10;;;;;;;5.09;63.51;99020.27;67976;1275;1018037;-62
2024/01/13 02:23:14;;;;;;;;;;;;;;;5.17;63.10;99011.34;68005;1275;1017533;-61
2024/01/13 02:26:17;;;;;;;18.00;5.40;;;;;;;5.05;63.37;99004.15;67952;1275;1016335;-61
2024/01/13 02:29:20;;;;;;;;;;;;;;;5.02;62.77;99005.30;67996;1275;1016402;-61
2024/01/13 02:32:22;;;;;;;21.10;5.70;;;;;;;4.89;63.55;99002.61;67969;1275;1018367;-61
2024/01/13 02:35:25;;;;;;;;;;;;;;;4.88;63.32;99000.91;67908;1275;1016258;-61
2024/01/13 02:38:28;;;;;;;19.10;5.40;;;;;;;4.94;63.35;99000.87;67968;1275;1016183;-61
2024/01/13 02:41:31;;;;;;;;;;;;;;;4.97;63.33;99007.17;67972;1275;1016384;-61
2024/01/13 02:44:33;;;;;;;;;;;;;;;5.05;63.35;99001.17;67980;1275;1016377;-61
2024/01/13 02:47:36;;;;;;;18.70;5.30;;;;;;;5.25;62.22;98996.48;68012;1275;1016225;-62
2024/01/13 02:50:39;;;;;;;;;;;;;;;5.07;62.83;98997.64;67967;1275;1016180;-61
2024/01/13 02:53:42;;;;;;;;;;;;;;;5.21;62.65;98982.94;67986;1275;1016489;-62
2024/01/13 02:56:44;;;;;;;22.00;5.70;;;;;;;5.23;62.25;98985.29;68018;1275;1016142;-62
2024/01/13 02:59:47;;;;;;;23.70;6.40;;;;;;;5.10;62.06;98984.37;67921;1275;1016187;-62
2024/01/13 03:02:50;;;;;;;;;;;;;;;5.11;62.01;98983.30;67974;1275;1016228;-62
2024/01/13 03:05:52;;;;;;;21.90;5.80;;;;;;;5.08;62.20;98971.10;67960;1275;1018383;-62
2024/01/13 03:08:55;;;;;;;;;;;;;;;5.10;62.59;98967.05;67930;1275;1017624;-60
2024/01/13 03:11:58;;;;;;;22.30;5.50;;;;;;;5.13;63.09;98966.75;67994;1275;1016295;-61
2024/01/13 03:15:01;;;;;;;;;;;;;;;5.15;63.46;98959.05;67988;1275;1016428;-61
2024/01/13 03:18:03;;;;;;;21.20;5.20;;;;;;;5.24;63.20;98961.84;67925;1275;1016226;-61
2024/01/13 03:21:06;;;;;;;;;;;;;;;5.27;63.14;98956.19;67996;1275;1016416;-61
2024/01/13 03:24:09;;;;;;;20.90;5.60;;;;;;;5.15;63.17;98954.04;68003;1275;1016255;-61
2024/01/13 03:27:11;;;;;;;20.70;5.60;;;;;;;5.19;62.50;98949.19;67966;1254;1016413;-62
2024/01/13 03:30:14;;;;;;;20.80;5.70;;;;;;;5.36;61.74;98951.16;68001;1275;1016167;-61
2024/01/13 03:33:17;;;;;;;21.20;5.40;;;;;;;5.36;62.36;98950.98;67956;1275;1016426;-61
2024/01/13 03:36:19;;;;;;;;;;;;;;;5.33;63.07;98956.98;67945;1275;1018915;-61
2024/01/13 03:39:22;;;;;;;;;;;;;;;5.42;62.75;98941.23;68010;1275;1016426;-62
2024/01/13 03:42:25;;;;;;;24.50;6.20;;;;;;;5.43;62.87;98943.63;67951;1275;1016429;-61
2024/01/13 03:45:27;;;;;;;;;;;;;;;5.44;62.91;98935.09;67931;1275;1016416;-62
2024/01/13 03:48:30;;;;;;;20.30;5.40;;;;;;;5.46;62.37;98938.30;67984;1275;1016419;-61
2024/01/13 03:51:33;;;;;;;;;;;;;;;5.22;62.59;98950.64;68001;1275;1016364;-61
2024/01/13 03:54:35;;;;;;;19.70;5.30;;;;;;;5.25;62.54;98950.20;67932;1275;1015982;-60
2024/01/13 03:57:38;;;;;;;;;;;;;;;5.34;62.65;98946.39;67966;1275;1016437;-62
2024/01/13 04:00:41;;;;;;;21.80;6.20;;;;;;;5.44;62.44;98949.13;67976;1275;1016592;-61
2024/01/13 04:03:43;;;;;;;;;;;;;;;5.56;61.78;98956.81;67932;1275;1016285;-62
2024/01/13 04:06:46;;;;;;;20.90;6.10;;;;;;;5.58;61.22;98956.76;67986;1275;1016185;-61
2024/01/13 04:09:49;;;;;;;;;;;;;;;5.49;61.22;98959.35;67979;1275;1016515;-61
2024/01/13 04:12:52;;;;;;;21.00;5.80;;;;;;;5.65;60.48;98957.88;67980;1275;1016436;-61
2024/01/13 04:15:55;;;;;;;;;;;;;;;5.65;60.50;98955.45;67983;1275;1016510;-61
2024/01/13 04:18:57;;;;;;;19.40;5.40;;;;;;;5.59;61.00;98958.27;67949;1275;1016313;-61
2024/01/13 04:22:00;;;;;;;;;;;;;;;5.67;60.81;98950.15;67962;1275;1016522;-61
2024/01/13 04:25:03;;;;;;;21.30;5.90;;;;;;;5.83;60.18;98942.27;67975;1275;1016191;-61
2024/01/13 04:28:05;;;;;;;;;;;;;;;5.66;60.18;98943.09;67955;1275;1016228;-61
2024/01/13 04:31:08;;;;;;;22.10;5.80;;;;;;;5.62;59.83;98936.65;67994;1275;1016404;-62
2024/01/13 04:34:11;;;;;;;20.00;5.30;;;;;;;5.46;59.92;98945.77;67972;1275;1016425;-61
2024/01/13 04:37:14;;;;;;;;;;;;;;;5.65;59.25;98933.95;67975;1275;1016390;-61
2024/01/13 04:40:16;;;;;;;19.60;5.00;;;;;;;5.69;58.79;98925.45;67978;1275;1015911;-61
2024/01/13 04:43:19;;;;;;;;;;;;;;;5.68;58.74;98919.57;67991;1275;1016459;-61
2024/01/13 04:46:22;;;;;;;21.80;6.50;;;;;;;5.72;58.81;98907.81;67970;1275;1017368;-61
2024/01/13 04:49:24;;;;;;;;;;;;;;;5.81;58.91;98903.81;67983;1275;1016449;-61
2024/01/13 04:52:27;;;;;;;21.90;6.40;;;;;;;5.71;59.37;98905.23;67988;1275;1016333;-61
2024/01/13 04:55:29;;;;;;;22.80;6.60;;;;;;;5.80;59.33;98912.00;67947;1275;1016406;-61
2024/01/13 04:58:32;;;;;;;19.80;6.20;;;;;;;5.85;58.84;98905.71;67962;1275;1016426;-61
2024/01/13 05:01:35;;;;;;;;;;;;;;;5.81;59.12;98911.61;67957;1275;1016459;-61
2024/01/13 05:04:39;;;;;;;24.40;6.90;;;;;;;5.93;58.84;98910.28;67970;1275;1016467;-62
2024/01/13 05:07:41;;;;;;;26.60;6.60;;;;;;;6.00;58.47;98907.39;67941;1275;1016155;-61
2024/01/13 05:10:44;;;;;;;;;;;;;;;5.91;58.69;98910.52;67923;1275;1019612;-61
2024/01/13 05:13:46;;;;;;;24.10;7.00;;;;;;;5.82;59.04;98916.77;67954;1275;1016449;-61
2024/01/13 05:16:49;;;;;;;;;;;;;;;5.89;58.99;98923.60;67928;1275;1016241;-61
2024/01/13 05:19:52;;;;;;;22.80;7.00;;;;;;;5.93;58.68;98922.60;67973;1275;1016441;-61
2024/01/13 05:22:54;;;;;;;;;;;;;;;6.02;58.89;98910.08;67960;1275;1016226;-61
2024/01/13 05:26:04;;;;;;;25.30;7.10;;;;;;;6.06;59.17;98906.84;67941;1275;1016141;-60
2024/01/13 05:29:06;;;;;;;22.10;7.00;;;;;;;5.96;59.65;98914.67;67900;1275;1017849;-60
2024/01/13 05:32:09;;;;;;;;;;;;;;;5.83;60.15;98924.38;68025;1274;1016376;-61
2024/01/13 05:35:12;;;;;;;19.40;6.00;;;;;;;5.68;60.73;98933.81;67986;1275;1016179;-62
2024/01/13 05:38:14;;;;;;;;;;;;;;;5.68;60.96;98924.45;67996;1275;1016391;-61
2024/01/13 05:41:17;;;;;;;21.90;7.20;;;;;;;5.66;60.87;98926.96;67984;1275;1015997;-61
2024/01/13 05:44:19;;;;;;;21.90;6.00;;;;;;;5.73;60.65;98937.79;68006;1275;1016136;-60
2024/01/13 05:47:22;;;;;;;24.20;6.90;;;;;;;5.82;60.27;98936.73;67941;1275;1016377;-61
2024/01/13 05:50:25;;;;;;;23.30;6.80;;;;;;;5.81;60.23;98943.54;67958;1275;1016428;-61
2024/01/13 05:53:27;;;;;;;;;;;;;;;5.83;60.27;98932.53;68016;1275;1016451;-61
2024/01/13 05:56:30;;;;;;;20.50;5.60;;;;;;;5.73;60.57;98933.97;67997;1275;1015788;-61
2024/01/13 05:59:32;;;;;;;25.10;7.40;;;;;;;5.98;59.82;98916.33;67931;1275;1016116;-61
2024/01/13 06:02:35;;;;;;;21.70;6.50;;;;;;;6.14;59.07;98919.69;68008;1275;1016201;-61
2024/01/13 06:05:38;;;;;;;;;;;;;;;6.20;58.78;98917.19;67974;1275;1016263;-62
2024/01/13 06:08:41;;;;;;;24.50;7.30;;;;;;;6.09;58.96;98919.38;67990;1275;1016069;-61
2024/01/13 06:11:44;;;;;;;;;;;;;;;6.15;58.70;98914.94;68009;1275;1016127;-61
2024/01/13 06:14:46;;;;;;;23.90;6.50;;;;;;;6.16;58.75;98922.71;67944;1275;1016316;-58
2024/01/13 06:17:49;;;;;;;24.90;7.50;;;;;;;6.01;59.45;98931.48;67993;1275;1016467;-62
2024/01/13 06:20:52;;;;;;;;;;;;;;;6.05;59.23;98932.75;67996;1275;1017968;-61
2024/01/13 06:23:56;;;;;;;26.40;8.00;;;;;;;6.15;58.97;98932.65;67773;1275;1016429;-62
2024/01/13 06:26:59;;;;;;;27.00;8.10;;;;;;;6.23;58.98;98931.48;67977;1275;1017120;-61
2024/01/13 06:30:02;;;;;;;;;;;;;;;6.31;58.59;98924.89;68035;1275;1016380;-61
2024/01/13 06:33:05;;;;;;;25.60;7.90;;;;;;;6.26;58.77;98920.58;68021;1275;1016422;-61
2024/01/13 06:36:08;;;;;;;24.50;8.20;;;;;;;6.24;58.89;98919.79;67982;1275;1016432;-61
2024/01/13 06:39:11;;;;;;;;;;;;;;;6.18;58.84;98920.75;67958;1275;1016496;-61
2024/01/13 06:42:14;;;;;;;22.40;7.80;;;;;;;6.31;58.39;98919.52;67997;1275;1016437;-61
2024/01/13 06:45:16;;;;;;;;;;;;;;;6.29;58.14;98921.15;67966;1275;1016263;-62
2024/01/13 06:48:19;;;;;;;28.20;8.00;;;;;;;6.24;58.32;98918.92;68023;1275;1016386;-62
2024/01/13 06:51:22;;;;;;;;;;;;;;;6.28;58.17;98918.25;68009;1275;1016109;-62
2024/01/13 06:54:25;;;;;;;25.70;7.70;;;;;;;6.04;59.12;98913.48;67957;1275;1016466;-61
2024/01/13 06:57:27;;;;;;;;;;;;;;;6.09;58.99;98911.92;67983;1274;1016101;-61
2024/01/13 07:00:30;;;;;;;25.00;8.00;;;;;;;5.94;59.33;98920.46;67996;1275;1016389;-61
2024/01/13 07:03:33;;;;;;;25.90;7.60;;;;;;;6.02;59.47;98912.70;67928;1275;1016352;-62
2024/01/13 07:06:36;;;;;;;;;;;;;;;6.10;59.16;98910.31;68010;1275;1018204;-61
2024/01/13 07:09:39;;;;;;;29.20;8.00;;;;;;;6.05;59.35;98911.91;67984;1275;1016452;-62
2024/01/13 07:12:42;;;;;;;;;;;;;;;6.00;59.38;98903.23;67994;1275;1016430;-61
2024/01/13 07:15:45;;;;;;;22.00;6.70;;;;;;;6.14;59.19;98901.97;67953;1275;1016412;-63
2024/01/13 07:18:47;;;;;;;25.00;7.60;;;;;;;6.11;59.15;98901.23;68032;1275;1016214;-60
2024/01/13 07:21:50;;;;;;;26.20;8.10;;;;;;;6.07;59.38;98894.98;68000;1275;1015831;-61
2024/01/13 07:24:53;;;;;;;25.40;7.50;;;;;;;6.05;59.32;98890.89;67965;1275;1016119;-61
2024/01/13 07:27:55;;;;;;;24.80;8.40;;;;;;;6.05;59.35;98884.11;68010;1275;1016411;-62
2024/01/13 07:30:58;;;;;;;;;;;;;;;6.15;59.03;98878.67;67977;1275;1016077;-61
2024/01/13 07:34:01;;;;;;;23.20;7.30;;;;;;;6.13;58.73;98880.52;67965;1275;1016999;-62
2024/01/13 07:37:03;;;;;;;26.10;9.00;;;;;;;6.16;58.96;98879.83;67987;1275;1016353;-62
2024/01/13 07:40:06;;;;;;;;;;;;;;;6.20;58.88;98882.45;68034;1275;1019339;-61
2024/01/13 07:43:09;;;;;;;23.50;6.80;;;;;;;6.27;58.80;98885.63;67963;1275;1016507;-62
2024/01/13 07:46:12;;;;;;;;;;;;;;;6.22;58.43;98890.88;68015;1275;1016346;-62
2024/01/13 07:49:15;;;;;;;26.10;8.00;;;;;;;6.21;58.48;98890.91;67970;1275;1016415;-61
2024/01/13 07:52:17;;;;;;;;;;;;;;;6.41;58.20;98897.21;68005;1275;1016444;-62
2024/01/13 07:55:20;;;;;;;26.40;8.90;;;;;;;6.32;58.62;98901.06;68012;1275;1016467;-61
2024/01/13 07:58:23;;;;;;;22.90;7.40;;;;;;;6.22;58.73;98899.71;67978;1275;1016417;-62
2024/01/13 08:01:26;;;;;;;;;;;;;;;6.23;58.62;98894.13;67985;1275;1016603;-61
2024/01/13 08:04:29;;;;;;;26.00;7.70;;;;;;;6.27;57.66;98898.98;67970;1275;1016893;-61
2024/01/13 08:07:33;;;;;;;26.50;7.90;;;;;;;6.40;57.11;98897.79;67932;1275;1016329;-62
2024/01/13 08:10:37;;;;;;;;;;;;;;;6.44;57.07;98898.11;68007;1275;1016482;-62
2024/01/13 08:13:40;;;;;;;31.70;9.70;;;;;;;6.54;56.99;98895.95;67985;1275;1016345;-61
2024/01/13 08:16:43;;;;;;;;;;;;;;;6.59;57.08;98892.61;67971;1275;1015750;-62
2024/01/13 08:19:46;;;;;;;30.60;8.90;;;;;;;6.68;56.56;98899.88;68010;1275;1016392;-62
2024/01/13 08:22:48;;;;;;;;;;;;;;;6.68;56.48;98904.20;67926;1275;1015923;-62
2024/01/13 08:25:51;;;;;;;28.10;8.10;;;;;;;6.68;56.77;98898.30;67919;1275;1016116;-62
2024/01/13 08:29:04;;;;;;;;;;;;;;;6.69;57.13;98892.88;67965;1275;1016226;-62
2024/01/13 08:32:08;;;;;;;27.30;8.30;;;;;;;6.75;57.30;98890.36;68011;1275;1016134;-61
2024/01/13 08:35:11;;;;;;;;;;;;;;;6.66;56.91;98890.04;67966;1275;1016512;-62
2024/01/13 08:38:14;;;;;;;18.30;6.30;;;;;;;6.63;56.92;98888.10;67996;1275;1016284;-62
2024/01/13 08:41:16;;;;;;;24.50;8.00;;;;;;;6.60;56.76;98887.73;67941;1275;1016412;-62
2024/01/13 08:44:19;;;;;;;25.90;8.70;;;;;;;6.49;57.50;98879.69;67962;1275;1016471;-61
2024/01/13 08:47:23;;;;;;;;;;;;;;;6.58;57.25;98880.34;67993;1275;1016389;-61
2024/01/13 08:50:27;;;;;;;27.30;8.70;;;;;;;6.64;57.21;98871.89;67940;1275;1016424;-62
2024/01/13 08:53:30;;;;;;;25.50;8.90;;;;;;;6.62;57.30;98874.95;68029;1275;1016346;-61
2024/01/13 08:56:34;;;;;;;25.80;8.70;;;;;;;6.69;57.07;98864.91;67968;1275;1017439;-61
2024/01/13 08:59:38;;;;;;;27.90;9.30;;;;;;;6.72;56.98;98869.95;67965;1275;1016442;-61
2024/01/13 09:02:41;;;;;;;29.50;10.20;;;;;;;6.74;56.78;98875.96;67942;1275;1016382;-61
2024/01/13 09:05:43;;;;;;;22.50;6.80;;;;;;;6.68;56.72;98884.56;67995;1275;1016402;-62
2024/01/13 09:08:46;;;;;;;26.70;8.30;;;;;;;6.45;57.35;98885.93;67994;1275;1016121;-62
2024/01/13 09:11:49;;;;;;;26.40;9.10;;;;;;;6.32;58.24;98880.20;68008;1275;1016245;-62
2024/01/13 09:14:51;;;;;;;25.80;8.70;;;;;;;6.44;58.24;98875.70;67983;1275;1016201;-61
2024/01/13 09:17:56;;;;;;;28.40;9.60;;;;;;;6.51;58.06;98873.86;67979;1275;1016469;-61
2024/01/13 09:20:59;;;;;;;26.70;9.00;;;;;;;6.61;57.68;98863.67;67957;1275;1016441;-61
2024/01/13 09:24:01;;;;;;;;;;;;;;;6.71;57.34;98863.08;67948;1275;1017904;-62
2024/01/13 09:27:04;;;;;;;25.80;7.90;;;;;;;6.75;57.24;98864.63;67970;1275;1016358;-62
2024/01/13 09:30:07;;;;;;;;;;;;;;;6.63;57.66;98860.47;67969;1275;1018261;-61
2024/01/13 09:33:09;;;;;;;26.50;8.30;;;;;;;6.69;57.50;98852.54;67945;1275;1016506;-61
2024/01/13 09:36:12;;;;;;;;;;;;;;;6.72;57.44;98846.01;67998;1275;1016972;-61
2024/01/13 09:39:15;;;;;;;29.40;9.50;;;;;;;6.81;57.18;98838.30;68017;1275;1016444;-61
2024/01/13 09:42:17;;;;;;;;;;;;;;;6.83;57.08;98839.59;67934;1275;1016631;-60
2024/01/13 09:45:20;;;;;;;28.10;9.30;;;;;;;6.90;56.80;98841.88;67964;1275;1016100;-62
2024/01/13 09:48:23;;;;;;;;;;;;;;;6.94;56.54;98833.34;68010;1275;1016815;-62
2024/01/13 09:51:26;;;;;;;28.10;8.20;;;;;;;7.06;56.03;98830.00;67978;1275;1016437;-61
2024/01/13 09:54:29;;;;;;;23.80;8.00;;;;;;;7.01;56.16;98823.98;68004;1254;1016329;-62
2024/01/13 09:57:32;;;;;;;;;;;;;;;7.06;55.65;98824.13;67961;1275;1016462;-61
2024/01/13 10:00:34;;;;;;;25.50;8.70;;;;;;;7.26;54.96;98815.38;68000;1275;1016169;-62
2024/01/13 10:03:37;;;;;;;;;;;;;;;7.31;54.86;98809.58;67950;1275;1015825;-61
2024/01/13 10:06:40;;;;;;;24.40;7.60;;;;;;;7.23;54.93;98813.76;67961;1275;1016512;-61
2024/01/13 10:09:42;;;;;;;;;;;;;;;7.36;54.54;98796.41;68001;1275;1016377;-61
2024/01/13 10:12:45;;;;;;;28.40;8.70;;;;;;;7.57;54.12;98789.35;67917;1275;1016518;-61
2024/01/13 10:15:48;;;;;;;29.00;9.70;;;;;;;7.67;53.90;98780.68;67962;1275;1015762;-61
2024/01/13 10:18:51;;;;;;;30.10;9.60;;;;;;;7.77;53.87;98778.95;67989;1275;1016499;-61
2024/01/13 10:21:53;;;;;;;;;;;;;;;7.80;53.68;98776.69;67938;1275;1016365;-62
2024/01/13 10:24:56;;;;;;;27.30;8.20;;;;;;;7.77;53.55;98768.16;67947;1275;1016161;-62
2024/01/13 10:27:59;;;;;;;;;;;;;;;7.74;53.52;98766.58;67989;1275;1016108;-61
2024/01/13 10:31:01;;;;;;;29.40;10.20;;;;;;;7.75;53.54;98760.08;67984;1275;1016244;-62
2024/01/13 10:34:04;;;;;;;;;;;;;;;7.82;53.34;98758.14;67981;1275;1017980;-62
2024/01/13 10:37:07;;;;;;;34.80;12.10;;;;;;;7.94;53.38;98755.09;68030;1275;1016547;-62
2024/01/13 10:40:09;;;;;;;34.60;11.60;;;;;;;7.96;53.08;98753.61;67959;1275;1016474;-62
2024/01/13 10:43:12;;;;;;;;;;;;;;;7.90;53.24;98755.85;67980;1275;1016507;-62
2024/01/13 10:46:15;;;;;;;33.90;12.00;;;;;;;7.77;53.25;98758.42;68025;1275;1016004;-62
2024/01/13 10:49:17;;;;;;;37.10;12.70;;;;;;;7.76;53.79;98753.73;68009;1275;1016039;-62
2024/01/13 10:52:20;;;;;;;;;;;;;;;7.76;53.59;98747.84;67973;1275;1016397;-61
2024/01/13 10:55:23;;;;;;;;;;;;;;;7.82;53.49;98742.80;68011;1275;1016554;-62
2024/01/13 10:58:26;;;;;;;;;;;;;;;7.99;53.37;98735.33;68006;1275;1016459;-62
2024/01/13 11:01:28;;;;;;;32.40;11.80;;;;;;;8.09;53.29;98722.49;67940;1275;1016428;-62
2024/01/13 11:04:31;;;;;;;30.80;10.50;;;;;;;8.05;53.28;98717.99;68009;1275;1016240;-61
2024/01/13 11:07:34;;;;;;;;;;;;;;;8.05;53.00;98715.69;68005;1275;1016392;-62
2024/01/13 11:10:36;;;;;;;31.70;10.50;;;;;;;7.83;52.78;98716.64;67946;1275;1015980;-62
2024/01/13 11:13:39;;;;;;;;;;;;;;;8.02;52.81;98711.86;68009;1275;1016794;-62
2024/01/13 11:16:44;;;;;;;;;;;;;;;8.09;52.44;98713.61;67970;1275;1015998;-62
2024/01/13 11:19:47;;;;;;;27.00;8.80;;;;;;;8.05;52.12;98707.38;67991;1275;1015692;-61
2024/01/13 11:22:49;;;;;;;26.90;8.00;;;;;;;8.02;51.65;98700.53;68000;1275;1016481;-63
2024/01/13 11:25:53;;;;;;;29.50;8.70;;;;;;;7.93;51.11;98699.77;67970;1275;1016043;-62
2024/01/13 11:28:56;;;;;;;23.90;7.50;;;;;;;7.90;51.61;98699.59;68025;1275;1016406;-61
2024/01/13 11:31:59;;;;;;;;;;;;;;;7.99;51.43;98693.89;67989;1275;1016390;-61
2024/01/13 11:35:02;;;;;;;23.70;7.40;;;;;;;8.07;51.33;98690.02;67972;1275;1016451;-61
2024/01/13 11:38:05;;;;;;;24.10;7.60;;;;;;;8.04;51.27;98687.56;67961;1275;1016481;-62
2024/01/13 11:41:07;;;;;;;;;;;;;;;8.01;51.09;98681.78;68003;1275;1016685;-62
2024/01/13 11:44:10;;;;;;;19.50;6.30;;;;;;;7.95;50.82;98672.54;67944;1275;1016461;-61
2024/01/13 11:47:13;;;;;;;22.30;6.40;;;;;;;7.98;50.79;98661.23;67955;1275;1016284;-62
2024/01/13 11:50:15;;;;;;;;;;;;;;;8.09;50.65;98653.86;67985;1275;1016415;-61
2024/01/13 11:53:18;;;;;;;21.20;6.10;;;;;;;8.07;50.31;98642.98;67986;1275;1019373;-62
2024/01/13 11:56:20;;;;;;;;;;;;;;;8.02;49.94;98644.46;67980;1275;1016245;-62
2024/01/13 11:59:23;;;;;;;22.50;6.80;;;;;;;8.08;49.76;98630.39;68010;1275;1016680;-62
2024/01/13 12:02:26;;;;;;;19.20;5.90;;;;;;;8.04;49.77;98629.02;68007;1275;1018312;-62
2024/01/13 12:05:28;;;;;;;;;;;;;;;8.08;49.91;98623.59;67982;1275;1016811;-62
2024/01/13 12:08:31;;;;;;;19.70;5.40;;;;;;;8.16;49.77;98617.09;68007;1275;1016416;-61
2024/01/13 12:11:34;;;;;;;;;;;;;;;8.08;49.66;98611.95;68020;1275;1016411;-62
2024/01/13 12:14:36;;;;;;;21.40;5.80;;;;;;;8.12;49.73;98600.20;67963;1275;1016500;-62
2024/01/13 12:17:39;;;;;;;20.70;6.30;;;;;;;8.28;49.29;98588.73;68000;1275;1016567;-61
2024/01/13 12:20:42;;;;;;;25.50;6.50;;;;;;;8.33;48.97;98587.05;68027;1275;1016239;-62
2024/01/13 12:23:44;;;;;;;22.70;6.10;;;;;;;8.26;48.54;98593.02;68000;1275;1016452;-62
2024/01/13 12:26:47;;;;;;;;;;;;;;;8.26;48.27;98592.65;67957;1275;1016747;-62
2024/01/13 12:29:50;;;;;;;;;;;;;;;8.30;48.40;98594.35;68031;1275;1018908;-61
2024/01/13 12:32:53;;;;;;;25.00;6.60;;;;;;;8.46;47.97;98589.84;67958;1275;1016166;-61
2024/01/13 12:35:56;;;;;;;18.70;5.60;;;;;;;8.33;47.95;98588.46;67983;1275;1016360;-61
2024/01/13 12:38:59;;;;;;;21.00;6.50;;;;;;;8.32;48.25;98579.77;67952;1275;1017719;-62
2024/01/13 12:42:02;;;;;;;;;;;;;;;8.51;47.76;98568.30;67996;1275;1016112;-61
2024/01/13 12:45:04;;;;;;;;;;;;;;;8.47;47.77;98572.03;68002;1275;1019351;-61
2024/01/13 12:48:07;;;;;;;21.20;6.20;;;;;;;8.50;47.68;98571.50;67996;1275;1016372;-62
2024/01/13 12:51:10;;;;;;;22.40;6.20;;;;;;;8.36;47.78;98579.20;67978;1275;1016443;-61
2024/01/13 12:54:12;;;;;;;;;;;;;;;8.30;48.03;98579.02;67969;1275;1016380;-62
2024/01/13 12:57:15;;;;;;;18.00;4.90;;;;;;;8.30;48.36;98569.61;67950;1275;1016435;-62
2024/01/13 13:00:18;;;;;;;;;;;;;;;8.19;48.43;98565.88;68009;1275;1016275;-62
2024/01/13 13:03:20;;;;;;;21.50;5.40;;;;;;;8.19;48.52;98558.93;67967;1275;1016473;-61
2024/01/13 13:06:23;;;;;;;21.60;6.10;;;;;;;8.28;48.32;98556.67;67952;1275;1016373;-62
2024/01/13 13:09:26;;;;;;;19.60;5.20;;;;;;;8.28;48.50;98549.89;68003;1275;1016407;-62
2024/01/13 13:12:28;;;;;;;;;;;;;;;8.14;48.45;98534.59;68036;1275;1016455;-62
2024/01/13 13:15:31;;;;;;;26.70;7.50;;;;;;;8.26;48.38;98517.60;67911;1275;1016485;-61
2024/01/13 13:18:34;;;;;;;23.80;6.50;;;;;;;8.30;48.26;98516.14;67994;1275;1016200;-62
2024/01/13 13:21:36;;;;;;;;;;;;;;;8.25;48.11;98528.08;67998;1275;1016299;-62
2024/01/13 13:24:39;;;;;;;20.40;5.60;;;;;;;8.05;48.32;98537.04;67971;1275;1016370;-62
2024/01/13 13:27:42;;;;;;;22.70;6.20;;;;;;;7.92;48.52;98528.36;68012;1275;1015794;-63
2024/01/13 13:30:45;;;;;;;22.50;6.70;;;;;;;7.96;48.49;98523.45;67998;1275;1017161;-62
2024/01/13 13:33:47;;;;;;;;;;;;;;;8.08;48.64;98519.13;67996;1275;1016243;-62
2024/01/13 13:36:50;;;;;;;23.20;6.10;;;;;;;8.02;48.33;98522.56;68003;1275;1016230;-61
2024/01/13 13:39:53;;;;;;;20.80;5.20;;;;;;;8.03;48.48;98518.37;67998;1275;1016362;-62
2024/01/13 13:42:55;;;;;;;;;;;;;;;8.02;48.73;98522.25;67985;1275;1015931;-61
2024/01/13 13:45:58;;;;;;;20.60;5.90;;;;;;;8.11;48.43;98519.64;68022;1275;1016323;-61
2024/01/13 13:49:01;;;;;;;22.80;5.40;;;;;;;8.22;48.50;98513.48;67998;1275;1018674;-62
2024/01/13 13:52:03;;;;;;;;;;;;;;;8.04;48.75;98512.18;67976;1275;1015912;-61
2024/01/13 13:55:06;;;;;;;23.50;5.30;;;;;;;8.00;48.72;98507.18;68003;1275;1016379;-62
2024/01/13 13:58:09;;;;;;;22.00;5.60;;;;;;;8.00;48.96;98498.50;67989;1275;1016275;-62
2024/01/13 14:01:11;;;;;;;21.70;5.70;;;;;;;7.94;49.17;98497.75;67948;1275;1019266;-61
2024/01/13 14:04:14;;;;;;;;;;;;;;;8.00;48.69;98486.86;68048;1275;1016396;-61
2024/01/13 14:07:17;;;;;;;20.50;5.30;;;;;;;7.96;48.93;98482.70;68004;1275;1016409;-62
2024/01/13 14:10:20;;;;;;;17.70;5.10;;;;;;;8.01;48.76;98472.48;67943;1275;1016407;-60
2024/01/13 14:13:24;;;;;;;;;;;;;;;7.96;48.62;98471.56;68020;1275;1016360;-61
2024/01/13 14:16:27;;;;;;;22.80;6.10;;;;;;;7.85;49.01;98473.00;68043;1275;1016303;-61
2024/01/13 14:19:29;;;;;;;22.40;6.70;;;;;;;7.83;49.13;98468.63;67969;1275;1016434;-62
2024/01/13 14:22:34;;;;;;;25.30;6.90;;;;;;;7.86;48.97;98465.16;67981;1275;1016456;-61
2024/01/13 14:25:37;;;;;;;25.70;7.20;;;;;;;7.83;49.33;98456.27;68024;1275;1018538;-61
2024/01/13 14:28:39;;;;;;;;;;;;;;;7.78;49.34;98447.11;67992;1275;1016320;-61
2024/01/13 14:31:42;;;;;;;27.20;7.10;;;;;;;7.76;49.24;98447.73;67932;1275;1016133;-61